Time;durP1;ratioP1;P1;durP2;ratioP2;P2;SDS_P1;SDS_P2;PMS_P1;PMS_P2;Temp;Humidity;BMP_temperature;BMP_pressure;BME280_temperature;BME280_humidity;BME280_pressure;Samples;Min_cycle;Max_cycle;Signal;HPM_P1;HPM_P2
2023/04/30 05:03:29;;;;;;;;;43.00;36.75;;;;;;;;5000065;28;45555;-59
2023/04/30 05:05:55;;;;;;;;;49.25;39.50;;;;;;;;5002112;28;45219;-59
2023/04/30 05:08:20;;;;;;;;;46.00;35.50;;;;;;;;5002200;28;46104;-59
2023/04/30 05:10:46;;;;;;;;;46.50;36.00;;;;;;;;5002377;28;45427;-59
2023/04/30 05:13:11;;;;;;;;;39.75;36.75;;;;;;;;5002432;28;45338;-59
2023/04/30 05:15:36;;;;;;;;;40.25;35.00;;;;;;;;5002506;28;45165;-59
2023/04/30 05:18:01;;;;;;;;;47.25;38.75;;;;;;;;5002666;28;45530;-59
2023/04/30 05:20:26;;;;;;;;;49.25;37.50;;;;;;;;5002350;28;45332;-60
2023/04/30 05:22:51;;;;;;;;;45.00;38.25;;;;;;;;5002517;28;45592;-59
2023/04/30 05:25:17;;;;;;;;;50.00;39.00;;;;;;;;5010408;28;45359;-59
2023/04/30 05:27:42;;;;;;;;;46.50;38.50;;;;;;;;5002112;28;46234;-59
2023/04/30 05:30:08;;;;;;;;;51.75;41.75;;;;;;;;5006307;28;45366;-60
2023/04/30 05:32:33;;;;;;;;;49.50;40.00;;;;;;;;5022049;28;45323;-60
2023/04/30 05:34:59;;;;;;;;;45.25;38.00;;;;;;;;5002647;28;45334;-59
2023/04/30 05:37:24;;;;;;;;;45.75;36.50;;;;;;;;5001772;28;45228;-59
2023/04/30 05:39:49;;;;;;;;;49.00;39.50;;;;;;;;5000634;28;45332;-59
2023/04/30 05:42:14;;;;;;;;;50.50;39.75;;;;;;;;5000774;28;45327;-59
2023/04/30 05:44:40;;;;;;;;;48.75;39.25;;;;;;;;5001806;28;45443;-59
2023/04/30 05:47:05;;;;;;;;;47.00;39.25;;;;;;;;5007351;28;46906;-59
2023/04/30 05:49:30;;;;;;;;;51.00;40.00;;;;;;;;5001670;28;45312;-60
2023/04/30 05:51:56;;;;;;;;;56.25;43.00;;;;;;;;5001697;28;45288;-59
2023/04/30 05:54:21;;;;;;;;;49.25;40.00;;;;;;;;5001708;28;45541;-59
2023/04/30 05:56:46;;;;;;;;;45.50;37.25;;;;;;;;5001678;28;46025;-59
2023/04/30 05:59:12;;;;;;;;;41.25;36.00;;;;;;;;5006466;28;45337;-59
2023/04/30 06:01:37;;;;;;;;;49.25;40.00;;;;;;;;5021015;28;45259;-59
2023/04/30 06:04:03;;;;;;;;;46.50;36.00;;;;;;;;5021323;28;45378;-60
2023/04/30 06:06:30;;;;;;;;;50.50;41.75;;;;;;;;5021181;28;46187;-60
2023/04/30 06:08:55;;;;;;;;;50.00;39.25;;;;;;;;5021276;28;45207;-59
2023/04/30 06:11:20;;;;;;;;;50.25;40.00;;;;;;;;5021498;28;45261;-59
2023/04/30 06:13:46;;;;;;;;;47.50;37.25;;;;;;;;5020146;28;45418;-59
2023/04/30 06:16:11;;;;;;;;;49.25;37.50;;;;;;;;5021302;28;45390;-59
2023/04/30 06:18:36;;;;;;;;;45.50;39.50;;;;;;;;5036738;28;45566;-59
2023/04/30 06:21:02;;;;;;;;;50.75;42.50;;;;;;;;5021154;28;45239;-59
2023/04/30 06:23:27;;;;;;;;;49.25;39.00;;;;;;;;5021207;28;45434;-59
2023/04/30 06:25:52;;;;;;;;;46.75;38.50;;;;;;;;5009777;28;46158;-59
2023/04/30 06:28:17;;;;;;;;;51.00;41.00;;;;;;;;5001299;28;45245;-59
2023/04/30 06:30:42;;;;;;;;;51.75;38.25;;;;;;;;5010582;28;45367;-59
2023/04/30 06:33:08;;;;;;;;;46.75;38.50;;;;;;;;5016814;28;45514;-59
2023/04/30 06:35:33;;;;;;;;;51.25;42.25;;;;;;;;5000943;28;45307;-59
2023/04/30 06:37:58;;;;;;;;;48.50;40.25;;;;;;;;5000989;28;45367;-59
2023/04/30 06:40:23;;;;;;;;;45.00;35.50;;;;;;;;5001296;28;45427;-60
2023/04/30 06:42:48;;;;;;;;;46.50;39.00;;;;;;;;5001168;28;45489;-59
2023/04/30 06:45:14;;;;;;;;;49.33;38.67;;;;;;;;5003380;28;46116;-60
2023/04/30 06:47:41;;;;;;;;;51.25;42.50;;;;;;;;5004009;28;45322;-60
2023/04/30 06:50:06;;;;;;;;;48.67;40.00;;;;;;;;5000998;28;45312;-60
2023/04/30 06:52:31;;;;;;;;;47.67;38.33;;;;;;;;5000830;28;45666;-60
2023/04/30 06:54:57;;;;;;;;;46.00;37.33;;;;;;;;5001070;28;45363;-60
2023/04/30 06:57:23;;;;;;;;;53.67;39.00;;;;;;;;5000547;28;45392;-59
2023/04/30 06:59:48;;;;;;;;;43.33;36.00;;;;;;;;5011302;28;45224;-60
2023/04/30 07:02:13;;;;;;;;;43.00;36.67;;;;;;;;5019077;28;45509;-60
2023/04/30 07:04:38;;;;;;;;;36.00;32.00;;;;;;;;5020467;28;46056;-60
2023/04/30 07:07:04;;;;;;;;;38.33;34.33;;;;;;;;5035564;28;45377;-60
2023/04/30 07:09:29;;;;;;;;;47.00;39.33;;;;;;;;5020874;28;45156;-60
2023/04/30 07:11:54;;;;;;;;;41.33;33.33;;;;;;;;5020005;28;45515;-60
2023/04/30 07:14:20;;;;;;;;;33.00;31.00;;;;;;;;5019261;28;45371;-60
2023/04/30 07:16:45;;;;;;;;;39.67;33.00;;;;;;;;5020198;28;45242;-60
2023/04/30 07:19:10;;;;;;;;;38.00;33.00;;;;;;;;5020785;28;45188;-60
2023/04/30 07:21:36;;;;;;;;;36.67;32.00;;;;;;;;5020106;28;45378;-60
2023/04/30 07:24:01;;;;;;;;;34.67;32.67;;;;;;;;5020204;28;46053;-60
2023/04/30 07:26:26;;;;;;;;;41.00;34.00;;;;;;;;5003715;28;45299;-60
2023/04/30 07:28:51;;;;;;;;;45.67;35.33;;;;;;;;4999629;28;45224;-60
2023/04/30 07:31:18;;;;;;;;;41.00;36.33;;;;;;;;5014172;28;45354;-60
2023/04/30 07:33:43;;;;;;;;;39.33;33.67;;;;;;;;5010470;28;46162;-60
2023/04/30 07:36:08;;;;;;;;;37.67;31.67;;;;;;;;4999981;28;45403;-60
2023/04/30 07:38:34;;;;;;;;;42.50;35.00;;;;;;;;5000752;28;45292;-60
2023/04/30 07:41:00;;;;;;;;;43.67;35.33;;;;;;;;5000311;28;45253;-60
2023/04/30 07:43:25;;;;;;;;;38.67;33.67;;;;;;;;5000455;28;47125;-60
2023/04/30 07:45:52;;;;;;;;;39.00;34.00;;;;;;;;5003815;28;45436;-60
2023/04/30 07:48:17;;;;;;;;;42.33;35.67;;;;;;;;5000494;28;45490;-60
2023/04/30 07:50:42;;;;;;;;;29.67;27.00;;;;;;;;4999811;28;45173;-60
2023/04/30 07:53:08;;;;;;;;;38.33;34.67;;;;;;;;4998908;28;48083;-61
2023/04/30 07:55:34;;;;;;;;;35.67;32.33;;;;;;;;5000010;28;45341;-61
2023/04/30 07:57:59;;;;;;;;;37.00;34.00;;;;;;;;5000167;28;45229;-61
2023/04/30 08:00:25;;;;;;;;;37.67;34.33;;;;;;;;5012138;28;45284;-60
2023/04/30 08:02:50;;;;;;;;;39.00;33.00;;;;;;;;4999781;28;47124;-61
2023/04/30 08:05:15;;;;;;;;;36.67;31.33;;;;;;;;4999653;28;45367;-61
2023/04/30 08:07:43;;;;;;;;;36.33;33.33;;;;;;;;5000206;28;45513;-60
2023/04/30 08:10:08;;;;;;;;;37.33;33.33;;;;;;;;5000141;28;45413;-60
2023/04/30 08:12:35;;;;;;;;;37.00;34.00;;;;;;;;4999793;28;45317;-61
2023/04/30 08:15:02;;;;;;;;;33.00;28.33;;;;;;;;4999914;28;45280;-61
2023/04/30 08:17:27;;;;;;;;;39.00;32.00;;;;;;;;4999969;28;45276;-61
2023/04/30 08:19:52;;;;;;;;;37.33;34.00;;;;;;;;4999646;28;45153;-61
2023/04/30 08:22:17;;;;;;;;;29.00;27.67;;;;;;;;4999846;28;46098;-61
2023/04/30 08:24:42;;;;;;;;;33.67;31.33;;;;;;;;5010276;28;45398;-60
2023/04/30 08:27:07;;;;;;;;;37.67;33.67;;;;;;;;5002018;28;45489;-61
2023/04/30 08:29:33;;;;;;;;;38.00;32.67;;;;;;;;5003233;28;45507;-61
2023/04/30 08:32:01;;;;;;;;;32.67;30.00;;;;;;;;5022367;28;45534;-61
2023/04/30 08:34:26;;;;;;;;;35.00;31.67;;;;;;;;5006995;28;45205;-60
2023/04/30 08:36:51;;;;;;;;;38.00;32.00;;;;;;;;5002736;28;45276;-61
2023/04/30 08:39:17;;;;;;;;;30.67;28.67;;;;;;;;5002979;28;45420;-61
2023/04/30 08:41:45;;;;;;;;;37.67;32.00;;;;;;;;5002994;28;45407;-61
2023/04/30 08:44:11;;;;;;;;;33.67;29.67;;;;;;;;5002912;28;45382;-61
2023/04/30 08:46:38;;;;;;;;;38.67;32.33;;;;;;;;5007245;28;45495;-61
2023/04/30 08:49:03;;;;;;;;;34.33;31.33;;;;;;;;5002825;28;45383;-61
2023/04/30 08:51:32;;;;;;;;;37.33;32.33;;;;;;;;5002492;28;46944;-61
2023/04/30 08:53:57;;;;;;;;;33.00;31.00;;;;;;;;5002697;28;45320;-61
2023/04/30 08:56:24;;;;;;;;;34.67;28.33;;;;;;;;5001357;28;45343;-59
2023/04/30 08:58:49;;;;;;;;;39.33;32.33;;;;;;;;5004786;28;45510;-61
2023/04/30 09:01:14;;;;;;;;;26.67;26.00;;;;;;;;5022631;28;46051;-62
2023/04/30 09:03:40;;;;;;;;;34.33;31.00;;;;;;;;5022355;28;45317;-61
2023/04/30 09:06:05;;;;;;;;;34.33;31.00;;;;;;;;5022334;28;45387;-61
2023/04/30 09:08:42;;;;;;;;;31.33;27.67;;;;;;;;5021231;28;45588;-61
2023/04/30 09:11:23;;;;;;;;;32.33;29.33;;;;;;;;5022353;28;45312;-61
2023/04/30 09:13:52;;;;;;;;;33.67;28.67;;;;;;;;5022139;28;45315;-61
2023/04/30 09:16:17;;;;;;;;;27.67;27.00;;;;;;;;5022211;28;45505;-61
2023/04/30 09:18:42;;;;;;;;;27.00;27.00;;;;;;;;5022409;28;45499;-61
2023/04/30 09:21:08;;;;;;;;;28.00;25.67;;;;;;;;5021648;28;46281;-61
2023/04/30 09:23:33;;;;;;;;;36.00;27.67;;;;;;;;5021999;28;45242;-61
2023/04/30 09:25:59;;;;;;;;;26.33;25.00;;;;;;;;5009091;28;45269;-61
2023/04/30 09:28:27;;;;;;;;;28.00;26.33;;;;;;;;5002216;28;45316;-63
2023/04/30 09:30:52;;;;;;;;;21.33;21.33;;;;;;;;5007726;28;46005;-61
2023/04/30 09:33:18;;;;;;;;;31.00;27.33;;;;;;;;5001873;28;45299;-61
2023/04/30 09:35:43;;;;;;;;;29.00;28.00;;;;;;;;5001855;28;45440;-61
2023/04/30 09:38:24;;;;;;;;;29.00;25.33;;;;;;;;5002130;28;45468;-61
2023/04/30 09:40:49;;;;;;;;;22.67;21.67;;;;;;;;5001757;28;45188;-60
2023/04/30 09:43:15;;;;;;;;;26.67;25.67;;;;;;;;5001884;28;45433;-61
2023/04/30 09:45:40;;;;;;;;;25.33;25.00;;;;;;;;5007369;28;45516;-61
2023/04/30 09:48:07;;;;;;;;;27.33;26.67;;;;;;;;5002215;28;45247;-61
2023/04/30 09:50:36;;;;;;;;;26.33;23.00;;;;;;;;5001528;28;45424;-61
2023/04/30 09:53:06;;;;;;;;;23.33;23.33;;;;;;;;5001828;28;45395;-61
2023/04/30 09:55:32;;;;;;;;;26.00;25.67;;;;;;;;5001716;28;45241;-61
2023/04/30 09:57:58;;;;;;;;;27.67;24.67;;;;;;;;5002044;28;45272;-61
2023/04/30 10:00:23;;;;;;;;;24.00;22.67;;;;;;;;5016593;28;46124;-62
2023/04/30 10:02:49;;;;;;;;;27.67;25.33;;;;;;;;5021372;28;45214;-61
2023/04/30 10:05:15;;;;;;;;;30.67;26.33;;;;;;;;5021309;28;45326;-61
2023/04/30 10:07:40;;;;;;;;;26.33;24.00;;;;;;;;5021667;28;45255;-61
2023/04/30 10:10:09;;;;;;;;;27.00;26.00;;;;;;;;5021330;28;45338;-61
2023/04/30 10:12:41;;;;;;;;;24.33;23.33;;;;;;;;5019786;28;45337;-61
2023/04/30 10:15:13;;;;;;;;;26.00;23.67;;;;;;;;5021234;28;45378;-61
2023/04/30 10:17:40;;;;;;;;;27.33;26.00;;;;;;;;5021584;28;45292;-62
2023/04/30 10:20:08;;;;;;;;;25.00;25.00;;;;;;;;5020679;28;46272;-61
2023/04/30 10:22:33;;;;;;;;;26.00;23.00;;;;;;;;5021403;28;45344;-62
2023/04/30 10:25:00;;;;;;;;;25.67;25.67;;;;;;;;5017094;28;45126;-62
2023/04/30 10:27:25;;;;;;;;;24.00;23.00;;;;;;;;5001390;28;45395;-62
2023/04/30 10:29:50;;;;;;;;;20.67;19.67;;;;;;;;5002876;28;46279;-62
2023/04/30 10:32:16;;;;;;;;;17.33;17.00;;;;;;;;5021470;28;45200;-62
2023/04/30 10:34:53;;;;;;;;;17.33;17.33;;;;;;;;5003700;28;45514;-62
2023/04/30 10:37:37;;;;;;;;;21.00;20.67;;;;;;;;5001280;28;45273;-62
2023/04/30 10:40:04;;;;;;;;;18.67;17.33;;;;;;;;5009611;28;46235;-63
2023/04/30 10:42:29;;;;;;;;;15.67;15.67;;;;;;;;5020738;28;45259;-62
2023/04/30 10:44:55;;;;;;;;;21.00;19.33;;;;;;;;5021321;28;45248;-62
2023/04/30 10:47:26;;;;;;;;;18.00;18.00;;;;;;;;5004733;28;45270;-62
2023/04/30 10:49:52;;;;;;;;;17.67;16.00;;;;;;;;5000783;28;45347;-62
2023/04/30 10:52:26;;;;;;;;;17.33;17.00;;;;;;;;5000816;28;45376;-62
2023/04/30 10:54:51;;;;;;;;;14.67;13.67;;;;;;;;5001316;28;45442;-62
2023/04/30 10:57:17;;;;;;;;;15.67;15.67;;;;;;;;5000795;28;45268;-62
2023/04/30 11:00:03;;;;;;;;;15.67;15.33;;;;;;;;5010485;28;46055;-62
2023/04/30 11:02:37;;;;;;;;;19.00;18.00;;;;;;;;5019767;28;45471;-61
2023/04/30 11:05:12;;;;;;;;;16.00;16.00;;;;;;;;5020532;28;45488;-62
2023/04/30 11:07:47;;;;;;;;;16.33;16.33;;;;;;;;5020762;28;45453;-62
2023/04/30 11:10:12;;;;;;;;;13.75;12.00;;;;;;;;5020415;28;46975;-61
2023/04/30 11:12:39;;;;;;;;;15.50;13.25;;;;;;;;5020475;28;45298;-62
2023/04/30 11:15:16;;;;;;;;;14.00;12.75;;;;;;;;5020590;28;45244;-61
2023/04/30 11:17:45;;;;;;;;;13.75;12.00;;;;;;;;5020619;28;45650;-61
2023/04/30 11:20:17;;;;;;;;;14.33;12.33;;;;;;;;5019992;28;47050;-61
2023/04/30 11:22:43;;;;;;;;;15.50;13.25;;;;;;;;5020392;28;45282;-61
2023/04/30 11:25:08;;;;;;;;;16.00;15.00;;;;;;;;5014996;28;45267;-61
2023/04/30 11:27:37;;;;;;;;;16.33;15.00;;;;;;;;5000491;28;45352;-62
2023/04/30 11:30:08;;;;;;;;;13.00;10.33;;;;;;;;5003746;28;46065;-62
2023/04/30 11:32:35;;;;;;;;;13.33;11.00;;;;;;;;5020391;28;45300;-61
2023/04/30 11:35:02;;;;;;;;;8.33;8.33;;;;;;;;5000429;28;45293;-61
2023/04/30 11:37:35;;;;;;;;;7.00;7.00;;;;;;;;4999066;28;45534;-61
2023/04/30 11:40:03;;;;;;;;;9.50;9.25;;;;;;;;5007922;28;46284;-61
2023/04/30 11:42:30;;;;;;;;;8.50;8.50;;;;;;;;5020037;28;45315;-61
2023/04/30 11:45:01;;;;;;;;;9.67;9.67;;;;;;;;5019037;28;45347;-60
2023/04/30 11:47:27;;;;;;;;;9.75;9.75;;;;;;;;5003174;28;45244;-60
2023/04/30 11:49:52;;;;;;;;;9.25;8.00;;;;;;;;4999825;28;45229;-60
2023/04/30 11:52:19;;;;;;;;;12.50;10.50;;;;;;;;5000331;28;45453;-61
2023/04/30 11:54:44;;;;;;;;;8.75;8.75;;;;;;;;5000521;28;45326;-60
2023/04/30 11:57:10;;;;;;;;;8.33;8.33;;;;;;;;4999958;28;45260;-60
2023/04/30 11:59:42;;;;;;;;;9.33;9.33;;;;;;;;5011517;28;46135;-60
2023/04/30 12:02:07;;;;;;;;;8.00;8.00;;;;;;;;5023323;28;45319;-60
2023/04/30 12:04:33;;;;;;;;;10.00;7.00;;;;;;;;5023400;28;45370;-60
2023/04/30 12:07:02;;;;;;;;;8.50;7.75;;;;;;;;5023180;28;45362;-61
2023/04/30 12:09:28;;;;;;;;;11.00;11.00;;;;;;;;5022126;28;48071;-61
2023/04/30 12:11:54;;;;;;;;;8.00;8.00;;;;;;;;5023135;28;45238;-60
2023/04/30 12:14:23;;;;;;;;;8.00;8.00;;;;;;;;5023494;28;45284;-60
2023/04/30 12:16:49;;;;;;;;;10.00;8.25;;;;;;;;5022042;28;45368;-60
2023/04/30 12:19:19;;;;;;;;;8.75;8.75;;;;;;;;5023213;28;45350;-60
2023/04/30 12:21:46;;;;;;;;;8.75;8.75;;;;;;;;5022651;28;45216;-60
2023/04/30 12:24:11;;;;;;;;;12.00;12.00;;;;;;;;5023254;28;45250;-60
2023/04/30 12:26:38;;;;;;;;;9.50;9.50;;;;;;;;5005151;28;45418;-61
2023/04/30 12:29:04;;;;;;;;;11.33;11.33;;;;;;;;5003063;28;46853;-60
2023/04/30 12:31:30;;;;;;;;;10.67;9.00;;;;;;;;5018484;28;45399;-61
2023/04/30 12:33:56;;;;;;;;;7.00;7.00;;;;;;;;5010477;28;45392;-61
2023/04/30 12:36:21;;;;;;;;;4.00;3.33;;;;;;;;5002740;28;45292;-60
2023/04/30 12:38:46;;;;;;;;;8.00;6.00;;;;;;;;5003111;28;45411;-62
2023/04/30 12:41:16;;;;;;;;;9.00;9.00;;;;;;;;5003126;28;45220;-62
2023/04/30 12:43:41;;;;;;;;;8.00;8.00;;;;;;;;5003284;28;45238;-62
2023/04/30 12:46:06;;;;;;;;;9.33;8.33;;;;;;;;5007514;28;45531;-60
2023/04/30 12:48:41;;;;;;;;;7.67;7.67;;;;;;;;5002780;28;46716;-62
2023/04/30 12:51:08;;;;;;;;;12.00;11.33;;;;;;;;5002467;28;45242;-62
2023/04/30 12:53:43;;;;;;;;;12.33;12.33;;;;;;;;5001623;28;45322;-62
2023/04/30 12:56:14;;;;;;;;;12.67;10.67;;;;;;;;5010431;28;45379;-62
2023/04/30 12:58:40;;;;;;;;;9.00;9.00;;;;;;;;5022236;28;47029;-62
2023/04/30 13:01:09;;;;;;;;;14.33;12.00;;;;;;;;5038034;28;45231;-62
2023/04/30 13:03:35;;;;;;;;;9.33;9.33;;;;;;;;5022486;28;45514;-62
2023/04/30 13:06:02;;;;;;;;;9.00;9.00;;;;;;;;5022118;28;45395;-62
2023/04/30 13:08:27;;;;;;;;;10.67;10.67;;;;;;;;5022195;28;45197;-60
2023/04/30 13:10:52;;;;;;;;;9.67;9.33;;;;;;;;5021968;28;45223;-60
2023/04/30 13:13:19;;;;;;;;;11.33;9.67;;;;;;;;5022641;28;45173;-62
2023/04/30 13:15:44;;;;;;;;;12.67;11.00;;;;;;;;5022669;28;45227;-62
2023/04/30 13:18:09;;;;;;;;;10.67;10.00;;;;;;;;5021829;28;45410;-60
2023/04/30 13:20:35;;;;;;;;;11.67;11.33;;;;;;;;5022035;28;45146;-62
2023/04/30 13:23:00;;;;;;;;;14.67;13.33;;;;;;;;5022323;28;45239;-62
2023/04/30 13:25:26;;;;;;;;;15.00;14.00;;;;;;;;5014367;28;45560;-61
2023/04/30 13:27:51;;;;;;;;;11.00;11.00;;;;;;;;5000977;28;47157;-61
2023/04/30 13:30:16;;;;;;;;;8.33;8.33;;;;;;;;5007615;28;45209;-61
2023/04/30 13:32:42;;;;;;;;;12.33;12.00;;;;;;;;5021262;28;45192;-61
2023/04/30 13:35:07;;;;;;;;;13.00;10.67;;;;;;;;5002241;28;45570;-62
2023/04/30 13:37:32;;;;;;;;;11.33;11.00;;;;;;;;5001893;28;45635;-61
2023/04/30 13:40:00;;;;;;;;;5.33;4.00;;;;;;;;5002252;28;45312;-61
2023/04/30 13:42:25;;;;;;;;;13.33;13.33;;;;;;;;5002197;28;45348;-61
2023/04/30 13:44:51;;;;;;;;;12.67;11.33;;;;;;;;5002183;28;45538;-61
2023/04/30 13:47:16;;;;;;;;;11.00;11.00;;;;;;;;5006503;28;46706;-61
2023/04/30 13:49:41;;;;;;;;;9.33;8.67;;;;;;;;5001712;28;45344;-61
2023/04/30 13:52:06;;;;;;;;;11.00;10.00;;;;;;;;5002015;28;45434;-61
2023/04/30 13:54:32;;;;;;;;;13.00;12.00;;;;;;;;5002309;28;45505;-61
2023/04/30 13:56:58;;;;;;;;;8.00;6.33;;;;;;;;5001559;28;46937;-61
2023/04/30 13:59:23;;;;;;;;;10.33;10.33;;;;;;;;5008723;28;45212;-61
2023/04/30 14:01:48;;;;;;;;;10.67;10.67;;;;;;;;5021644;28;45328;-61
2023/04/30 14:04:14;;;;;;;;;6.67;6.67;;;;;;;;5021545;28;45200;-61
2023/04/30 14:06:39;;;;;;;;;11.00;11.00;;;;;;;;5021249;28;45994;-61
2023/04/30 14:09:05;;;;;;;;;10.00;9.00;;;;;;;;5021490;28;45185;-61
2023/04/30 14:11:30;;;;;;;;;12.00;12.00;;;;;;;;5021522;28;45203;-61
2023/04/30 14:13:55;;;;;;;;;9.00;9.00;;;;;;;;5021631;28;45261;-61
2023/04/30 14:16:21;;;;;;;;;10.33;8.33;;;;;;;;5021184;28;46273;-61
2023/04/30 14:18:47;;;;;;;;;9.33;9.00;;;;;;;;5021423;28;45461;-61
2023/04/30 14:21:13;;;;;;;;;9.33;9.33;;;;;;;;5020125;28;45603;-61
2023/04/30 14:23:38;;;;;;;;;11.67;10.67;;;;;;;;5021567;28;45295;-61
2023/04/30 14:26:03;;;;;;;;;9.67;9.00;;;;;;;;5007483;28;46174;-61
2023/04/30 14:28:28;;;;;;;;;12.00;10.33;;;;;;;;5000148;28;45337;-61
2023/04/30 14:30:54;;;;;;;;;9.00;9.00;;;;;;;;5011815;28;45464;-61
2023/04/30 14:33:19;;;;;;;;;10.00;10.00;;;;;;;;5014778;28;45352;-60
2023/04/30 14:35:45;;;;;;;;;8.00;7.00;;;;;;;;5001160;28;45276;-59
2023/04/30 14:38:10;;;;;;;;;8.00;8.00;;;;;;;;5001237;28;45322;-60
2023/04/30 14:40:35;;;;;;;;;7.00;7.00;;;;;;;;5001248;28;45349;-60
2023/04/30 14:43:00;;;;;;;;;7.67;7.67;;;;;;;;5001291;28;45315;-60
2023/04/30 14:45:27;;;;;;;;;9.33;7.67;;;;;;;;5005014;28;45256;-61
2023/04/30 14:47:52;;;;;;;;;8.00;8.00;;;;;;;;5001478;28;45329;-59
2023/04/30 14:50:17;;;;;;;;;9.00;8.00;;;;;;;;5001075;28;45323;-60
2023/04/30 14:52:42;;;;;;;;;9.67;7.67;;;;;;;;5001290;28;45368;-59
2023/04/30 14:55:08;;;;;;;;;9.00;8.00;;;;;;;;5000863;28;45950;-59
2023/04/30 14:57:33;;;;;;;;;9.33;9.33;;;;;;;;5000865;28;45320;-60
2023/04/30 14:59:59;;;;;;;;;8.00;8.00;;;;;;;;5012736;28;45523;-60
2023/04/30 15:02:24;;;;;;;;;8.33;8.33;;;;;;;;5020548;28;45150;-60
2023/04/30 15:04:50;;;;;;;;;8.33;8.00;;;;;;;;5020124;28;45511;-59
2023/04/30 15:07:15;;;;;;;;;6.00;6.00;;;;;;;;5020519;28;45231;-60
2023/04/30 15:09:40;;;;;;;;;8.00;8.00;;;;;;;;5020804;28;45237;-60
2023/04/30 15:12:05;;;;;;;;;7.00;7.00;;;;;;;;5020539;28;45199;-60
2023/04/30 15:14:30;;;;;;;;;6.00;6.00;;;;;;;;5020605;28;45427;-60
2023/04/30 15:16:56;;;;;;;;;8.00;7.00;;;;;;;;5020304;28;45525;-60
2023/04/30 15:19:21;;;;;;;;;8.00;8.00;;;;;;;;5020797;28;45228;-61
2023/04/30 15:21:46;;;;;;;;;8.67;8.67;;;;;;;;5020045;28;45445;-60
2023/04/30 15:24:12;;;;;;;;;7.67;7.67;;;;;;;;5020239;28;45419;-60
2023/04/30 15:26:37;;;;;;;;;9.00;9.00;;;;;;;;5002185;28;45541;-60
2023/04/30 15:29:03;;;;;;;;;8.33;8.00;;;;;;;;5000845;28;45319;-60
2023/04/30 15:31:29;;;;;;;;;9.00;7.33;;;;;;;;5015671;28;45646;-60
2023/04/30 15:33:54;;;;;;;;;7.00;7.00;;;;;;;;5012186;28;46009;-59
2023/04/30 15:36:22;;;;;;;;;7.00;6.67;;;;;;;;5003653;28;45350;-60
2023/04/30 15:38:47;;;;;;;;;10.00;7.33;;;;;;;;5004002;28;45375;-60
2023/04/30 15:41:12;;;;;;;;;7.00;7.00;;;;;;;;5003695;28;45530;-60
2023/04/30 15:43:37;;;;;;;;;6.67;6.33;;;;;;;;5003969;28;45447;-60
2023/04/30 15:46:02;;;;;;;;;7.00;6.00;;;;;;;;5007914;28;45511;-60
2023/04/30 15:48:28;;;;;;;;;7.00;7.00;;;;;;;;5003959;28;45292;-60
2023/04/30 15:50:55;;;;;;;;;8.67;8.67;;;;;;;;5003691;28;45205;-59
2023/04/30 15:53:20;;;;;;;;;7.00;7.00;;;;;;;;5003938;28;47140;-59
2023/04/30 15:55:46;;;;;;;;;5.00;5.00;;;;;;;;5003402;28;45223;-60
2023/04/30 15:58:12;;;;;;;;;5.67;5.67;;;;;;;;5003767;28;45434;-60
2023/04/30 16:00:37;;;;;;;;;7.67;7.67;;;;;;;;5020714;28;45339;-60
2023/04/30 16:03:02;;;;;;;;;7.67;6.67;;;;;;;;5023419;28;45299;-61
2023/04/30 16:05:28;;;;;;;;;6.33;6.33;;;;;;;;5023120;28;45299;-60
2023/04/30 16:07:53;;;;;;;;;7.33;7.00;;;;;;;;5023579;28;45323;-60
2023/04/30 16:10:19;;;;;;;;;5.00;3.33;;;;;;;;5023405;28;45212;-60
2023/04/30 16:12:44;;;;;;;;;5.33;5.33;;;;;;;;5023492;28;45594;-60
2023/04/30 16:15:09;;;;;;;;;6.67;6.67;;;;;;;;5023221;28;45315;-60
2023/04/30 16:17:34;;;;;;;;;8.00;7.00;;;;;;;;5023366;28;45357;-61
2023/04/30 16:20:00;;;;;;;;;7.00;7.00;;;;;;;;5023065;28;45367;-61
2023/04/30 16:22:29;;;;;;;;;6.00;6.00;;;;;;;;5023172;28;47055;-61
2023/04/30 16:24:54;;;;;;;;;5.33;5.33;;;;;;;;5020080;28;45156;-60
2023/04/30 16:27:19;;;;;;;;;6.33;6.33;;;;;;;;5003173;28;45229;-60
2023/04/30 16:29:44;;;;;;;;;7.33;6.33;;;;;;;;5004559;28;45339;-62
2023/04/30 16:32:10;;;;;;;;;6.00;6.00;;;;;;;;5021885;28;47187;-61
2023/04/30 16:34:35;;;;;;;;;3.00;3.00;;;;;;;;5022638;28;45161;-60
2023/04/30 16:37:00;;;;;;;;;6.00;6.00;;;;;;;;5023456;28;45154;-60
2023/04/30 16:39:26;;;;;;;;;6.00;6.00;;;;;;;;5023050;28;45540;-60
2023/04/30 16:41:51;;;;;;;;;6.00;6.00;;;;;;;;5023109;28;45318;-60
2023/04/30 16:44:16;;;;;;;;;5.00;5.00;;;;;;;;5004075;28;45240;-61
2023/04/30 16:46:41;;;;;;;;;10.33;8.33;;;;;;;;5014674;28;45191;-61
2023/04/30 16:49:07;;;;;;;;;6.33;6.33;;;;;;;;5002104;28;45246;-61
2023/04/30 16:51:32;;;;;;;;;6.00;6.00;;;;;;;;5002698;28;46738;-61
2023/04/30 16:53:57;;;;;;;;;6.67;6.67;;;;;;;;5003027;28;45232;-61
2023/04/30 16:56:22;;;;;;;;;7.33;7.33;;;;;;;;5003019;28;45177;-61
2023/04/30 16:58:47;;;;;;;;;7.00;6.33;;;;;;;;5004943;28;45454;-61
2023/04/30 17:01:13;;;;;;;;;7.00;6.00;;;;;;;;5022538;28;46119;-61
2023/04/30 17:03:38;;;;;;;;;9.33;8.00;;;;;;;;5022448;28;45343;-61
2023/04/30 17:06:05;;;;;;;;;8.00;8.00;;;;;;;;5022415;28;45443;-61
2023/04/30 17:08:30;;;;;;;;;8.00;8.00;;;;;;;;5022548;28;45336;-61
2023/04/30 17:10:55;;;;;;;;;8.00;8.00;;;;;;;;5022198;28;46023;-61
2023/04/30 17:13:21;;;;;;;;;6.00;6.00;;;;;;;;5021001;28;45803;-61
2023/04/30 17:15:47;;;;;;;;;7.67;7.67;;;;;;;;5022652;28;45213;-61
2023/04/30 17:18:13;;;;;;;;;6.00;6.00;;;;;;;;5022377;28;45430;-61
2023/04/30 17:20:39;;;;;;;;;8.67;8.67;;;;;;;;5021837;28;46278;-61
2023/04/30 17:23:04;;;;;;;;;8.00;8.00;;;;;;;;5022303;28;45366;-61
2023/04/30 17:25:30;;;;;;;;;9.00;8.00;;;;;;;;5014606;28;45365;-62
2023/04/30 17:27:56;;;;;;;;;12.00;10.00;;;;;;;;5001129;28;45186;-61
2023/04/30 17:30:21;;;;;;;;;9.00;9.00;;;;;;;;5008310;28;47092;-61
2023/04/30 17:32:46;;;;;;;;;7.67;7.67;;;;;;;;5021289;28;45211;-61
2023/04/30 17:35:11;;;;;;;;;7.67;7.67;;;;;;;;5001945;28;45238;-61
2023/04/30 17:37:37;;;;;;;;;10.00;8.00;;;;;;;;5002234;28;45174;-61
2023/04/30 17:40:04;;;;;;;;;8.33;8.00;;;;;;;;5000977;28;46891;-61
2023/04/30 17:42:30;;;;;;;;;7.33;7.00;;;;;;;;5002105;28;45324;-61
2023/04/30 17:44:55;;;;;;;;;9.00;8.67;;;;;;;;5002422;28;45316;-61
2023/04/30 17:47:21;;;;;;;;;8.67;7.33;;;;;;;;5008027;28;45301;-61
2023/04/30 17:49:46;;;;;;;;;6.00;6.00;;;;;;;;5001904;28;45975;-61
2023/04/30 17:52:12;;;;;;;;;7.00;6.00;;;;;;;;5001977;28;45248;-61
2023/04/30 17:54:37;;;;;;;;;8.00;8.00;;;;;;;;5002269;28;45226;-61
2023/04/30 17:57:02;;;;;;;;;8.00;8.00;;;;;;;;5001752;28;45629;-61
2023/04/30 17:59:29;;;;;;;;;7.67;7.67;;;;;;;;5009667;28;46270;-61
2023/04/30 18:01:54;;;;;;;;;5.67;5.67;;;;;;;;5021612;28;45239;-61
2023/04/30 18:04:20;;;;;;;;;6.00;5.00;;;;;;;;5021382;28;45267;-61
2023/04/30 18:06:46;;;;;;;;;8.00;8.00;;;;;;;;5020193;28;45425;-61
2023/04/30 18:09:11;;;;;;;;;8.67;7.00;;;;;;;;5021607;28;46141;-61
2023/04/30 18:11:36;;;;;;;;;10.00;9.00;;;;;;;;5021312;28;45308;-61
2023/04/30 18:14:02;;;;;;;;;6.67;6.67;;;;;;;;5021622;28;45288;-60
2023/04/30 18:16:27;;;;;;;;;8.67;8.67;;;;;;;;5021567;28;45483;-60
2023/04/30 18:18:52;;;;;;;;;9.33;7.33;;;;;;;;5021590;28;46303;-61
2023/04/30 18:21:18;;;;;;;;;9.00;9.00;;;;;;;;5021081;28;45345;-60
2023/04/30 18:23:43;;;;;;;;;8.33;8.33;;;;;;;;5021575;28;45288;-61
2023/04/30 18:26:09;;;;;;;;;9.00;9.00;;;;;;;;5007504;28;45458;-61
2023/04/30 18:28:34;;;;;;;;;8.00;7.33;;;;;;;;5001456;28;46929;-60
2023/04/30 18:31:00;;;;;;;;;8.67;7.33;;;;;;;;5012543;28;45288;-61
2023/04/30 18:33:25;;;;;;;;;8.00;8.00;;;;;;;;5014817;28;45279;-60
2023/04/30 18:35:51;;;;;;;;;8.67;8.00;;;;;;;;5001028;28;45351;-61
2023/04/30 18:38:17;;;;;;;;;7.67;7.67;;;;;;;;5001084;28;46118;-60
2023/04/30 18:40:42;;;;;;;;;12.67;10.00;;;;;;;;5001252;28;45307;-61
2023/04/30 18:43:08;;;;;;;;;8.67;7.33;;;;;;;;5001487;28;45321;-60
2023/04/30 18:45:33;;;;;;;;;8.67;8.00;;;;;;;;5006412;28;45228;-61
2023/04/30 18:47:58;;;;;;;;;10.00;8.33;;;;;;;;5001213;28;45348;-61
2023/04/30 18:50:24;;;;;;;;;10.00;8.33;;;;;;;;5000818;28;45287;-62
2023/04/30 18:52:49;;;;;;;;;10.00;10.00;;;;;;;;5001463;28;45307;-60
2023/04/30 18:55:15;;;;;;;;;10.33;9.33;;;;;;;;5000798;28;45438;-60
2023/04/30 18:57:41;;;;;;;;;10.00;9.33;;;;;;;;5000921;28;45250;-61
2023/04/30 19:00:07;;;;;;;;;10.33;10.33;;;;;;;;5013687;28;45185;-60
2023/04/30 19:02:32;;;;;;;;;10.67;10.67;;;;;;;;5020736;28;45149;-61
2023/04/30 19:04:57;;;;;;;;;10.67;10.67;;;;;;;;5020898;28;45574;-60
2023/04/30 19:07:23;;;;;;;;;9.33;8.00;;;;;;;;5019970;28;46139;-60
2023/04/30 19:09:50;;;;;;;;;12.00;12.00;;;;;;;;5020918;28;45370;-60
2023/04/30 19:12:15;;;;;;;;;9.00;9.00;;;;;;;;5020381;28;45461;-60
2023/04/30 19:14:41;;;;;;;;;12.33;9.00;;;;;;;;5020709;28;45334;-60
2023/04/30 19:17:06;;;;;;;;;10.67;10.00;;;;;;;;5020360;28;45409;-60
2023/04/30 19:19:31;;;;;;;;;10.33;10.33;;;;;;;;5020217;28;45331;-61
2023/04/30 19:21:56;;;;;;;;;11.00;9.00;;;;;;;;5020715;28;45255;-60
2023/04/30 19:24:22;;;;;;;;;12.33;10.67;;;;;;;;5020735;28;45286;-61